Cote D IVoirian Star — A8SL4 — position and weather

sailwx.info

Track history (hours):
 
Tides and Currents Weather Stations Pressure Air Temp Water Temp Dewpoint Dewpoint Depression Visibility Wind Speed Wind Dir Waves Ship Positions

Cote D IVoirian Star

Last reported at 2014-Dec-18 01:30 UTC. Time now 2014-Dec-18 02:31 UTC.
Position N 51°16' E 004°15'.

Length 185 m; draft 8 m.

Type: Cargo ship. MMSI: 636014241.

Date/timePositionNaut miles runAvg speedWind from/ knotsBaromVisibWave heightAir tempDewpointWater temp
2014-Dec-18 01:30N 51°16' E 004°15'0 0.0
2014-Dec-18 00:31N 51°16' E 004°15'0 0.0
2014-Dec-17 23:31N 51°16' E 004°15'0 0.0
2014-Dec-17 22:31N 51°16' E 004°15'0 0.0
2014-Dec-17 21:31N 51°16' E 004°15'0 0.0
2014-Dec-17 20:31N 51°16' E 004°15'0 0.0
2014-Dec-17 19:19N 51°16' E 004°15'0 0.0
2014-Dec-17 18:31N 51°16' E 004°15'0 0.0
2014-Dec-17 17:28N 51°16' E 004°15'0 0.0
2014-Dec-17 16:31N 51°16' E 004°15'0 0.0
2014-Dec-17 15:31N 51°16' E 004°15'0 0.0
2014-Dec-17 14:32N 51°16' E 004°15'0 0.0
2014-Dec-17 13:31N 51°16' E 004°15'0 0.0
2014-Dec-17 12:28N 51°16' E 004°15'0 0.0
2014-Dec-17 11:25N 51°16' E 004°15'0 0.0
2014-Dec-17 10:31N 51°16' E 004°15'0 0.0
2014-Dec-17 09:28N 51°16' E 004°15'0 0.0
2014-Dec-17 08:31N 51°16' E 004°15'0 0.0
2014-Dec-17 07:31N 51°16' E 004°15'0 0.0
2014-Dec-17 06:28N 51°16' E 004°15'0 0.0
2014-Dec-17 05:31N 51°16' E 004°15'0 0.0
2014-Dec-17 04:28N 51°16' E 004°15'0 0.0
2014-Dec-17 03:31N 51°16' E 004°15'0 0.0
2014-Dec-17 02:31N 51°16' E 004°15'0 0.0
2014-Dec-17 01:25N 51°16' E 004°15'0 0.0
2014-Dec-17 00:31N 51°16' E 004°15'0 0.0
2014-Dec-16 23:31N 51°16' E 004°15'0 0.0
2014-Dec-16 22:31N 51°16' E 004°15'0 0.0
2014-Dec-16 21:31N 51°16' E 004°15'0 0.0
2014-Dec-16 20:31N 51°16' E 004°15'0 0.0
2014-Dec-16 19:31N 51°16' E 004°15'0 0.0
2014-Dec-16 18:28N 51°16' E 004°15'0 0.0
2014-Dec-16 17:31N 51°16' E 004°15'0 0.0
2014-Dec-16 16:31N 51°16' E 004°15'0 0.0
2014-Dec-16 15:28N 51°16' E 004°15'0 0.0
2014-Dec-16 14:31N 51°16' E 004°15'1 1.4
2014-Dec-16 13:33N 51°16' E 004°17'1 0.5
2014-Dec-16 12:33N 51°16' E 004°18'3 2.8
2014-Dec-16 11:34N 51°19' E 004°16'6 6.1
2014-Dec-16 10:33N 51°23' E 004°09'8 7.8
2014-Dec-16 09:33N 51°23' E 003°57'10 9.8
2014-Dec-16 08:33N 51°25' E 003°42'1010.1
2014-Dec-16 07:33N 51°25' E 003°25'1110.9
2014-Dec-16 06:33N 51°24' E 003°08'1312.7
2014-Dec-16 05:32N 51°25' E 002°47'3 3.0
2014-Dec-16 04:28N 51°25' E 002°42'1 0.4
2014-Dec-16 02:33N 51°25' E 002°41'0 0.0
2014-Dec-16 01:22N 51°25' E 002°41'0 0.1
2014-Dec-15 23:14N 51°25' E 002°41'0 0.1
2014-Dec-15 22:29N 51°25' E 002°41'0 0.0
2014-Dec-15 21:32N 51°25' E 002°41'0 0.0
2014-Dec-15 20:32N 51°25' E 002°41'0 0.0
2014-Dec-15 19:29N 51°25' E 002°41'0 0.0
2014-Dec-15 18:32N 51°25' E 002°41'0 0.0
2014-Dec-15 17:23N 51°25' E 002°41'0 0.0
2014-Dec-15 16:32N 51°25' E 002°41'0 0.1
2014-Dec-15 15:32N 51°25' E 002°41'0 0.0
2014-Dec-15 14:32N 51°25' E 002°41'0 0.0
2014-Dec-15 13:32N 51°25' E 002°41'0 0.1
2014-Dec-15 12:33N 51°25' E 002°41'0 0.1
2014-Dec-15 11:32N 51°25' E 002°41'0 0.0
2014-Dec-15 10:32N 51°25' E 002°41'0 0.0
2014-Dec-15 09:32N 51°25' E 002°41'0 0.0
2014-Dec-15 08:20N 51°25' E 002°41'0 0.0
2014-Dec-15 07:32N 51°25' E 002°41'0 0.0
2014-Dec-15 06:32N 51°25' E 002°41'0 0.0
2014-Dec-15 05:20N 51°25' E 002°41'0 0.1
2014-Dec-15 04:32N 51°26' E 002°41'0 0.0
2014-Dec-15 03:20N 51°25' E 002°41'0 0.0
2014-Dec-15 02:17N 51°26' E 002°41'0 0.0
2014-Dec-15 01:29N 51°26' E 002°41'0 0.0
2014-Dec-15 00:20N 51°26' E 002°41'0 0.1
2014-Dec-14 23:20N 51°26' E 002°41'0 0.0
2014-Dec-14 22:17N 51°26' E 002°41'0 0.0
2014-Dec-14 21:29N 51°26' E 002°41'0 0.0
2014-Dec-14 20:32N 51°26' E 002°41'0 0.0
2014-Dec-14 19:20N 51°26' E 002°41'0 0.0
2014-Dec-14 18:32N 51°26' E 002°41'0 0.0
2014-Dec-14 17:32N 51°25' E 002°41'7 7.4
2014-Dec-14 16:34N 51°22' E 002°31'1817.8
2014-Dec-14 15:33N 51°14' E 002°05'2019.8
2014-Dec-14 14:33N 51°05' E 001°38'1111.0
2014-Dec-14 13:32N 51°07' E 001°20'1 0.1
2014-Dec-14 04:11N 51°08' E 001°21'0 0.0
2014-Dec-14 00:23N 51°08' E 001°21'0 0.0
2014-Dec-13 23:32N 51°08' E 001°20'0 0.1
2014-Dec-13 19:21N 51°07' E 001°20'5 6.9
2014-Dec-13 18:33N 51°06' E 001°29'1715.0
2014-Dec-13 17:26N 50°50' E 001°25'  
Track history (hours):
 
Tides and Currents Weather Stations Pressure Air Temp Water Temp Dewpoint Dewpoint Depression Visibility Wind Speed Wind Dir Waves Ship Positions

Cote D IVoirian Star

Last reported at 2014-Dec-18 01:30 UTC. Time now 2014-Dec-18 02:31 UTC.
Position N 51°16' E 004°15'.

Length 185 m; draft 8 m.

Type: Cargo ship. MMSI: 636014241.

Date/timePositionNaut miles runAvg speedWind from/ knotsBaromVisibWave heightAir tempDewpointWater temp
2014-Dec-18 01:30N 51°16' E 004°15'0 0.0
2014-Dec-18 00:31N 51°16' E 004°15'0 0.0
2014-Dec-17 23:31N 51°16' E 004°15'0 0.0
2014-Dec-17 22:31N 51°16' E 004°15'0 0.0
2014-Dec-17 21:31N 51°16' E 004°15'0 0.0
2014-Dec-17 20:31N 51°16' E 004°15'0 0.0
2014-Dec-17 19:19N 51°16' E 004°15'0 0.0
2014-Dec-17 18:31N 51°16' E 004°15'0 0.0
2014-Dec-17 17:28N 51°16' E 004°15'0 0.0
2014-Dec-17 16:31N 51°16' E 004°15'0 0.0
2014-Dec-17 15:31N 51°16' E 004°15'0 0.0
2014-Dec-17 14:32N 51°16' E 004°15'0 0.0
2014-Dec-17 13:31N 51°16' E 004°15'0 0.0
2014-Dec-17 12:28N 51°16' E 004°15'0 0.0
2014-Dec-17 11:25N 51°16' E 004°15'0 0.0
2014-Dec-17 10:31N 51°16' E 004°15'0 0.0
2014-Dec-17 09:28N 51°16' E 004°15'0 0.0
2014-Dec-17 08:31N 51°16' E 004°15'0 0.0
2014-Dec-17 07:31N 51°16' E 004°15'0 0.0
2014-Dec-17 06:28N 51°16' E 004°15'0 0.0
2014-Dec-17 05:31N 51°16' E 004°15'0 0.0
2014-Dec-17 04:28N 51°16' E 004°15'0 0.0
2014-Dec-17 03:31N 51°16' E 004°15'0 0.0
2014-Dec-17 02:31N 51°16' E 004°15'0 0.0
2014-Dec-17 01:25N 51°16' E 004°15'0 0.0
2014-Dec-17 00:31N 51°16' E 004°15'0 0.0
2014-Dec-16 23:31N 51°16' E 004°15'0 0.0
2014-Dec-16 22:31N 51°16' E 004°15'0 0.0
2014-Dec-16 21:31N 51°16' E 004°15'0 0.0
2014-Dec-16 20:31N 51°16' E 004°15'0 0.0
2014-Dec-16 19:31N 51°16' E 004°15'0 0.0
2014-Dec-16 18:28N 51°16' E 004°15'0 0.0
2014-Dec-16 17:31N 51°16' E 004°15'0 0.0
2014-Dec-16 16:31N 51°16' E 004°15'0 0.0
2014-Dec-16 15:28N 51°16' E 004°15'0 0.0
2014-Dec-16 14:31N 51°16' E 004°15'1 1.4
2014-Dec-16 13:33N 51°16' E 004°17'1 0.5
2014-Dec-16 12:33N 51°16' E 004°18'3 2.8
2014-Dec-16 11:34N 51°19' E 004°16'6 6.1
2014-Dec-16 10:33N 51°23' E 004°09'8 7.8
2014-Dec-16 09:33N 51°23' E 003°57'10 9.8
2014-Dec-16 08:33N 51°25' E 003°42'1010.1
2014-Dec-16 07:33N 51°25' E 003°25'1110.9
2014-Dec-16 06:33N 51°24' E 003°08'1312.7
2014-Dec-16 05:32N 51°25' E 002°47'3 3.0
2014-Dec-16 04:28N 51°25' E 002°42'1 0.4
2014-Dec-16 02:33N 51°25' E 002°41'0 0.0
2014-Dec-16 01:22N 51°25' E 002°41'0 0.1
2014-Dec-15 23:14N 51°25' E 002°41'0 0.1
2014-Dec-15 22:29N 51°25' E 002°41'0 0.0
2014-Dec-15 21:32N 51°25' E 002°41'0 0.0
2014-Dec-15 20:32N 51°25' E 002°41'0 0.0
2014-Dec-15 19:29N 51°25' E 002°41'0 0.0
2014-Dec-15 18:32N 51°25' E 002°41'0 0.0
2014-Dec-15 17:23N 51°25' E 002°41'0 0.0
2014-Dec-15 16:32N 51°25' E 002°41'0 0.1
2014-Dec-15 15:32N 51°25' E 002°41'0 0.0
2014-Dec-15 14:32N 51°25' E 002°41'0 0.0
2014-Dec-15 13:32N 51°25' E 002°41'0 0.1
2014-Dec-15 12:33N 51°25' E 002°41'0 0.1
2014-Dec-15 11:32N 51°25' E 002°41'0 0.0
2014-Dec-15 10:32N 51°25' E 002°41'0 0.0
2014-Dec-15 09:32N 51°25' E 002°41'0 0.0
2014-Dec-15 08:20N 51°25' E 002°41'0 0.0
2014-Dec-15 07:32N 51°25' E 002°41'0 0.0
2014-Dec-15 06:32N 51°25' E 002°41'0 0.0
2014-Dec-15 05:20N 51°25' E 002°41'0 0.1
2014-Dec-15 04:32N 51°26' E 002°41'0 0.0
2014-Dec-15 03:20N 51°25' E 002°41'0 0.0
2014-Dec-15 02:17N 51°26' E 002°41'0 0.0
2014-Dec-15 01:29N 51°26' E 002°41'0 0.0
2014-Dec-15 00:20N 51°26' E 002°41'0 0.1
2014-Dec-14 23:20N 51°26' E 002°41'0 0.0
2014-Dec-14 22:17N 51°26' E 002°41'0 0.0
2014-Dec-14 21:29N 51°26' E 002°41'0 0.0
2014-Dec-14 20:32N 51°26' E 002°41'0 0.0
2014-Dec-14 19:20N 51°26' E 002°41'0 0.0
2014-Dec-14 18:32N 51°26' E 002°41'0 0.0
2014-Dec-14 17:32N 51°25' E 002°41'7 7.4
2014-Dec-14 16:34N 51°22' E 002°31'1817.8
2014-Dec-14 15:33N 51°14' E 002°05'2019.8
2014-Dec-14 14:33N 51°05' E 001°38'1111.0
2014-Dec-14 13:32N 51°07' E 001°20'1 0.1
2014-Dec-14 04:11N 51°08' E 001°21'0 0.0
2014-Dec-14 00:23N 51°08' E 001°21'0 0.0
2014-Dec-13 23:32N 51°08' E 001°20'0 0.1
2014-Dec-13 19:21N 51°07' E 001°20'5 6.9
2014-Dec-13 18:33N 51°06' E 001°29'1715.0
2014-Dec-13 17:26N 50°50' E 001°25'  

Dump ship's entire track history